Pagina principale
METAR-TAF:

METAR-TAF

Aeroporti :

Aeroporto di Figari Corsica del Sud

Figari, Francia

latitudine: 41-30N, longitudine: 009-06E, altezza: 26 m

Osservazione

Il bollettino è stato emesso 33 minuti fa, alle 18:30 UTC
Vento 3 kt da nord-est
Temperature 8°C
Umidità 87%
Pressione 1030 hPa
Visibilità 10 km o più
Poco nuvoloso ad un'altezza di 2200 ft

METAR: LFKF 161830Z AUTO 05003KT 9999 FEW022 08/06 Q1030 NOSIG

Ora: 20:03 (19:03 UTC)

Previsione

Il bollettino è stato emesso 5 ore e 3 minuti fa, alle 14:00 UTC
Previsione valida dal 16 alle 15 UTC al 17 alle 15 UTC
Vento 8 kt da sud-ovest
Visibilità 10 km o più
Evoluzione graduale
dal 16 alle 20 UTC al 16 alle 22 UTC
Vento 10 kt da nord-est
Evoluzione graduale
dal 17 alle 10 UTC al 17 alle 11 UTC
Vento 10 kt da ovest/sud-ovest

TAF: LFKF 161400Z 1615/1715 22008KT 9999 NSC BECMG 1620/1622 04010KT BECMG 1710/1711 24010KT

Osservazioni e previsioni meteorologiche di più di 4000 aeroporti (messaggi METAR e TAF).

Le stazioni disponibili sono rappresentate dai dischi gialli e rossi sulla carta.

Puntare il mouse per vedere il nome della stazione.

Clicca sopra per visualizzare le osservazioni e previsioni meteorologiche.

Per cambiare la mappa : fare clic sui pulsanti verdi con una croce nera per ingrandire, il pulsante verde con un trattino per diminuire, o sulla freccia verde per le mappe adiacenti.


METAR-TAF: